Time;durP1;ratioP1;P1;durP2;ratioP2;P2;SDS_P1;SDS_P2;PMS_P1;PMS_P2;Temp;Humidity;BMP_temperature;BMP_pressure;BME280_temperature;BME280_humidity;BME280_pressure;Samples;Min_cycle;Max_cycle;Signal;HPM_P1;HPM_P2
2021/06/29 00:02:05;;;;;;;7.97;6.63;;;;;;;18.09;67.97;99969.44;4913538;29;20052;-64
2021/06/29 00:04:31;;;;;;;5.70;4.95;;;;;;;17.95;68.45;99965.78;4910686;29;20095;-65
2021/06/29 00:06:57;;;;;;;6.55;5.75;;;;;;;17.91;68.44;99966.41;4906107;29;20202;-64
2021/06/29 00:09:24;;;;;;;7.07;6.22;;;;;;;17.86;68.73;99969.69;4913597;29;20044;-64
2021/06/29 00:11:50;;;;;;;6.68;5.53;;;;;;;17.73;69.23;99967.72;4909936;29;20124;-64
2021/06/29 00:14:16;;;;;;;5.25;4.68;;;;;;;17.67;69.40;99970.38;4913358;29;20493;-65
2021/06/29 00:16:44;;;;;;;7.20;5.30;;;;;;;17.63;69.49;99961.75;4913382;29;20117;-64
2021/06/29 00:19:11;;;;;;;6.22;5.05;;;;;;;17.60;69.78;99964.88;4914351;29;20708;-64
2021/06/29 00:21:37;;;;;;;6.38;4.95;;;;;;;17.60;69.28;99958.59;4913267;29;20458;-64
2021/06/29 00:24:04;;;;;;;6.10;5.30;;;;;;;17.62;69.40;99957.38;4913330;29;20108;-64
2021/06/29 00:26:31;;;;;;;7.68;6.10;;;;;;;17.64;69.24;99951.75;4905845;29;20057;-63
2021/06/29 00:28:58;;;;;;;6.20;5.45;;;;;;;17.64;68.73;99944.47;4910405;29;20051;-63
2021/06/29 00:31:24;;;;;;;8.18;4.82;;;;;;;17.57;69.35;99951.72;4904157;29;20181;-65
2021/06/29 00:33:52;;;;;;;6.93;5.53;;;;;;;17.56;69.67;99949.19;4908884;29;20446;-63
2021/06/29 00:36:19;;;;;;;6.65;5.38;;;;;;;17.53;69.71;99950.44;4906448;29;20048;-64
2021/06/29 00:38:45;;;;;;;6.85;5.60;;;;;;;17.49;70.22;99949.97;4906036;29;20048;-64
2021/06/29 00:41:13;;;;;;;8.93;5.72;;;;;;;17.44;70.37;99948.88;4913151;29;20492;-64
2021/06/29 00:43:45;;;;;;;5.82;5.18;;;;;;;17.35;70.85;99950.03;4912183;29;20048;-64
2021/06/29 00:46:12;;;;;;;8.52;5.47;;;;;;;17.31;70.93;99952.31;4908830;29;20048;-64
2021/06/29 00:48:38;;;;;;;6.38;5.70;;;;;;;17.29;70.53;99935.41;4905560;29;20100;-63
2021/06/29 00:51:06;;;;;;;7.03;5.80;;;;;;;17.36;70.29;99932.75;4913036;29;20052;-64
2021/06/29 00:53:33;;;;;;;6.63;5.95;;;;;;;17.31;70.74;99940.63;4912063;29;20438;-64
2021/06/29 00:55:59;;;;;;;5.82;5.20;;;;;;;17.28;70.99;99935.56;4909765;29;20104;-64
2021/06/29 00:58:26;;;;;;;6.78;5.82;;;;;;;17.24;71.08;99933.25;4908840;29;20451;-64
2021/06/29 01:00:53;;;;;;;6.40;5.30;;;;;;;17.24;71.15;99941.41;4912799;29;20478;-64
2021/06/29 01:03:20;;;;;;;8.13;6.75;;;;;;;17.24;71.25;99935.97;4911679;29;20044;-64
2021/06/29 01:05:46;;;;;;;6.63;5.63;;;;;;;17.24;71.32;99935.97;4902785;29;20577;-64
2021/06/29 01:08:14;;;;;;;7.20;6.50;;;;;;;17.21;71.22;99940.97;4899643;29;20459;-64
2021/06/29 01:10:40;;;;;;;6.60;5.60;;;;;;;17.26;70.94;99938.50;4910047;29;20048;-64
2021/06/29 01:13:07;;;;;;;6.43;5.20;;;;;;;17.21;71.08;99941.78;4910952;29;20526;-65
2021/06/29 01:15:33;;;;;;;6.60;5.82;;;;;;;17.14;71.97;99938.16;4906067;29;20458;-66
2021/06/29 01:18:01;;;;;;;6.00;4.85;;;;;;;17.14;72.04;99942.75;4912061;29;20190;-65
2021/06/29 01:20:31;;;;;;;6.13;4.97;;;;;;;17.15;71.75;99942.56;4907092;29;20052;-64
2021/06/29 01:23:01;;;;;;;7.55;5.80;;;;;;;17.12;71.85;99936.69;4909146;29;20123;-63
2021/06/29 01:25:30;;;;;;;7.13;5.05;;;;;;;17.14;71.71;99945.47;4909596;29;20071;-69
2021/06/29 01:28:06;;;;;;;6.38;5.70;;;;;;;17.11;71.82;99943.16;4906760;29;20052;-63
2021/06/29 01:33:19;;;;;;;6.40;5.72;;;;;;;16.98;72.77;99943.84;4912451;29;20139;-65
2021/06/29 01:35:47;;;;;;;8.43;5.88;;;;;;;17.06;72.26;99940.19;4910001;29;20104;-65
2021/06/29 01:38:18;;;;;;;8.90;6.93;;;;;;;17.12;71.84;99939.41;4911454;29;20056;-64
2021/06/29 01:40:44;;;;;;;6.60;5.80;;;;;;;17.09;71.72;99947.94;4912538;29;20059;-66
2021/06/29 01:43:11;;;;;;;7.50;6.25;;;;;;;17.06;72.02;99943.75;4911762;29;20052;-64
2021/06/29 01:45:37;;;;;;;8.10;6.15;;;;;;;17.04;72.38;99945.78;4910928;29;20514;-63
2021/06/29 01:48:05;;;;;;;6.18;5.10;;;;;;;17.08;72.15;99949.81;4901637;29;20056;-65
2021/06/29 01:50:32;;;;;;;9.10;7.75;;;;;;;17.10;72.01;99945.03;4908811;29;20048;-62
2021/06/29 01:53:01;;;;;;;7.63;6.70;;;;;;;17.15;71.97;99942.56;4912709;29;20052;-64
2021/06/29 01:55:28;;;;;;;7.38;6.68;;;;;;;17.34;71.00;99940.22;4905489;29;20048;-64
2021/06/29 01:57:54;;;;;;;6.07;5.47;;;;;;;17.44;70.63;99938.03;4910208;29;20056;-64
2021/06/29 02:00:21;;;;;;;7.85;6.10;;;;;;;17.58;70.22;99934.38;4911484;29;20062;-64
2021/06/29 02:02:48;;;;;;;7.05;6.30;;;;;;;17.68;69.83;99929.47;4910875;29;20052;-66
2021/06/29 02:05:15;;;;;;;6.07;4.78;;;;;;;17.76;69.70;99929.34;4908818;29;20407;-66
2021/06/29 02:07:41;;;;;;;7.28;5.75;;;;;;;17.82;69.56;99933.13;4904267;29;20117;-64
2021/06/29 02:10:11;;;;;;;7.95;6.68;;;;;;;17.93;69.16;99935.28;4907939;29;20459;-64
2021/06/29 02:12:37;;;;;;;6.88;6.18;;;;;;;18.06;69.05;99934.53;4908949;29;20518;-66
2021/06/29 02:15:05;;;;;;;7.80;7.00;;;;;;;18.14;69.05;99939.81;4911820;29;20217;-67
2021/06/29 02:17:32;;;;;;;6.82;5.80;;;;;;;18.17;69.14;99941.28;4911530;29;20100;-65
2021/06/29 02:19:58;;;;;;;11.43;5.57;;;;;;;18.23;69.01;99941.34;4910578;29;20048;-64
2021/06/29 02:22:25;;;;;;;5.93;5.07;;;;;;;18.30;68.92;99944.91;4911707;29;20209;-65
2021/06/29 02:24:51;;;;;;;7.32;6.00;;;;;;;18.35;69.25;99949.72;4903616;29;20108;-63
2021/06/29 02:27:19;;;;;;;9.63;7.88;;;;;;;18.39;69.24;99953.72;4897371;29;20151;-64
2021/06/29 02:29:45;;;;;;;9.20;8.27;;;;;;;18.40;69.40;99953.53;4910227;29;20450;-64
2021/06/29 02:32:11;;;;;;;10.18;7.03;;;;;;;18.44;69.50;99942.25;4910330;29;20104;-64
2021/06/29 02:34:38;;;;;;;9.93;8.75;;;;;;;18.42;69.07;99945.16;4910002;29;20570;-64
2021/06/29 02:37:04;;;;;;;9.00;7.18;;;;;;;18.45;69.07;99943.91;4906479;29;20056;-65
2021/06/29 02:39:31;;;;;;;7.22;6.53;;;;;;;18.49;68.87;99945.22;4909739;29;21253;-65
2021/06/29 02:41:57;;;;;;;8.55;7.55;;;;;;;18.55;68.66;99944.38;4910949;29;20112;-63
2021/06/29 02:44:25;;;;;;;7.22;5.38;;;;;;;18.65;68.23;99942.16;4910664;29;20048;-63
2021/06/29 02:46:52;;;;;;;6.50;5.55;;;;;;;18.71;68.28;99944.06;4904666;29;20059;-64
2021/06/29 02:49:18;;;;;;;6.78;5.88;;;;;;;18.76;67.89;99938.00;4903381;29;20052;-64
2021/06/29 02:51:44;;;;;;;7.10;6.10;;;;;;;18.78;68.25;99934.03;4910134;29;20460;-64
2021/06/29 02:54:11;;;;;;;6.85;5.95;;;;;;;18.84;68.12;99943.28;4909001;29;20067;-65
2021/06/29 02:56:38;;;;;;;7.40;6.50;;;;;;;18.85;68.00;99940.34;4910419;29;20565;-63
2021/06/29 02:59:04;;;;;;;7.25;6.55;;;;;;;18.85;68.61;99932.19;4911320;29;20465;-64
2021/06/29 03:01:32;;;;;;;7.68;6.68;;;;;;;18.87;68.72;99926.53;4903401;29;20048;-66
2021/06/29 03:03:58;;;;;;;8.05;6.60;;;;;;;18.88;68.74;99936.38;4911066;29;20111;-65
2021/06/29 03:06:24;;;;;;;6.00;5.30;;;;;;;18.89;68.55;99930.72;4906783;29;20636;-64
2021/06/29 03:08:51;;;;;;;6.20;5.53;;;;;;;18.89;68.58;99924.44;4903599;29;20052;-65
2021/06/29 03:11:17;;;;;;;10.10;7.50;;;;;;;18.92;68.03;99922.16;4908414;29;20052;-65
2021/06/29 03:13:43;;;;;;;11.35;8.65;;;;;;;18.80;69.07;99937.38;4908171;29;20123;-64
2021/06/29 03:16:11;;;;;;;11.27;9.05;;;;;;;18.68;68.88;99941.75;4909876;29;20294;-64
2021/06/29 03:18:39;;;;;;;10.95;8.77;;;;;;;18.63;69.50;99936.06;4909991;29;20075;-65
2021/06/29 03:21:06;;;;;;;7.43;6.72;;;;;;;18.64;69.58;99933.16;4908718;29;20048;-64
2021/06/29 03:23:33;;;;;;;9.48;8.48;;;;;;;18.60;69.89;99937.31;4913575;29;20048;-64
2021/06/29 03:25:59;;;;;;;7.90;6.95;;;;;;;18.61;69.46;99924.56;4912707;29;20467;-64
2021/06/29 03:28:26;;;;;;;8.55;7.65;;;;;;;18.74;69.26;99918.34;4901958;29;20467;-65
2021/06/29 03:30:52;;;;;;;9.60;7.40;;;;;;;18.76;69.51;99919.81;4912985;29;20056;-63
2021/06/29 03:33:19;;;;;;;11.55;10.13;;;;;;;18.73;70.12;99936.53;4906668;29;20052;-64
2021/06/29 03:35:47;;;;;;;9.25;8.07;;;;;;;18.71;70.08;99933.19;4915519;29;20119;-64
2021/06/29 03:38:13;;;;;;;9.70;7.80;;;;;;;18.75;69.88;99929.03;4912198;29;20052;-63
2021/06/29 03:40:39;;;;;;;9.63;8.63;;;;;;;18.78;69.91;99920.44;4914712;29;20104;-64
2021/06/29 03:43:06;;;;;;;8.70;7.38;;;;;;;18.85;69.82;99926.75;4912673;29;20099;-65
2021/06/29 03:45:33;;;;;;;7.40;6.57;;;;;;;18.97;69.58;99924.25;4913054;29;20550;-65
2021/06/29 03:47:59;;;;;;;11.68;10.48;;;;;;;19.03;69.50;99933.47;4903740;29;20048;-64
2021/06/29 03:50:26;;;;;;;11.43;9.40;;;;;;;19.06;69.51;99924.88;4903767;29;20059;-64
2021/06/29 03:52:54;;;;;;;9.32;8.30;;;;;;;19.12;69.20;99919.47;4912537;29;20084;-64
2021/06/29 03:55:21;;;;;;;12.38;9.27;;;;;;;19.39;68.06;99920.31;4912770;29;20521;-67
2021/06/29 03:57:48;;;;;;;8.10;7.28;;;;;;;19.54;68.06;99926.41;4912286;29;20048;-65
2021/06/29 04:00:15;;;;;;;9.00;8.10;;;;;;;19.68;68.38;99937.31;4911940;29;20279;-64
2021/06/29 04:02:42;;;;;;;10.32;9.32;;;;;;;19.83;67.68;99929.75;4913100;29;20542;-64
2021/06/29 04:05:09;;;;;;;11.77;10.15;;;;;;;19.98;67.01;99924.91;4906168;29;20044;-64
2021/06/29 04:07:36;;;;;;;12.30;10.75;;;;;;;20.07;68.03;99928.22;4906760;29;20052;-64
2021/06/29 04:10:04;;;;;;;11.10;9.90;;;;;;;20.13;67.36;99935.56;4907435;29;20051;-65
2021/06/29 04:12:30;;;;;;;12.02;9.77;;;;;;;20.17;66.89;99925.91;4911554;29;20126;-65
2021/06/29 04:14:57;;;;;;;14.05;10.35;;;;;;;20.33;66.71;99930.03;4914269;29;20502;-65
2021/06/29 04:17:23;;;;;;;12.07;10.88;;;;;;;20.49;67.32;99926.88;4908789;29;20049;-64
2021/06/29 04:19:49;;;;;;;12.20;11.00;;;;;;;20.65;66.04;99920.91;4907208;29;20622;-66
2021/06/29 04:22:16;;;;;;;9.63;8.63;;;;;;;20.87;64.76;99917.88;4913928;29;20502;-63
2021/06/29 04:24:42;;;;;;;11.00;9.90;;;;;;;21.19;63.79;99910.50;4909359;29;20048;-63
2021/06/29 04:27:10;;;;;;;8.90;7.85;;;;;;;21.32;63.41;99915.09;4903046;29;20051;-64
2021/06/29 04:29:36;;;;;;;9.43;8.50;;;;;;;21.51;62.74;99911.34;4908437;29;20107;-63
2021/06/29 04:32:03;;;;;;;10.82;9.43;;;;;;;21.63;62.83;99914.16;4914089;29;20048;-65
2021/06/29 04:34:29;;;;;;;8.50;7.60;;;;;;;21.79;61.26;99902.69;4904955;29;20100;-64
2021/06/29 04:36:56;;;;;;;6.95;6.22;;;;;;;21.88;61.37;99913.06;4913956;29;20723;-63
2021/06/29 04:39:22;;;;;;;9.18;8.18;;;;;;;22.18;59.63;99901.44;4911042;29;20094;-65
2021/06/29 04:41:49;;;;;;;8.55;7.20;;;;;;;22.23;59.56;99912.53;4911956;29;20056;-64
2021/06/29 04:44:16;;;;;;;7.68;6.78;;;;;;;22.22;60.07;99916.31;4914039;29;20060;-64
2021/06/29 04:46:43;;;;;;;9.10;8.05;;;;;;;22.30;59.75;99907.81;4908477;29;20056;-64
2021/06/29 04:49:09;;;;;;;9.18;6.97;;;;;;;22.38;59.38;99904.78;4909577;29;20115;-63
2021/06/29 04:51:36;;;;;;;10.60;7.22;;;;;;;22.38;59.12;99902.06;4914270;29;20048;-65
2021/06/29 04:54:02;;;;;;;7.85;6.97;;;;;;;22.44;58.96;99903.84;4911194;29;20147;-64
2021/06/29 04:56:28;;;;;;;9.43;6.95;;;;;;;22.51;58.62;99903.78;4905207;29;20100;-65
2021/06/29 04:58:57;;;;;;;8.05;6.88;;;;;;;22.48;58.49;99899.59;4913271;29;20056;-65
2021/06/29 05:01:25;;;;;;;8.15;7.00;;;;;;;22.64;58.31;99891.84;4911833;29;20103;-66
2021/06/29 05:03:52;;;;;;;7.85;6.47;;;;;;;22.68;57.90;99899.34;4907002;29;20447;-65
2021/06/29 05:06:19;;;;;;;7.15;6.38;;;;;;;22.66;57.64;99895.16;4910757;29;20080;-66
2021/06/29 05:08:46;;;;;;;6.63;5.82;;;;;;;22.74;57.46;99895.69;4908135;29;20265;-64
2021/06/29 05:11:12;;;;;;;8.75;6.82;;;;;;;22.78;56.34;99887.84;4906877;29;20494;-64
2021/06/29 05:13:38;;;;;;;18.48;7.05;;;;;;;23.03;56.18;99899.50;4907003;29;20048;-65
2021/06/29 05:16:05;;;;;;;10.35;6.47;;;;;;;23.13;55.33;99889.88;4909968;29;20048;-64
2021/06/29 05:18:34;;;;;;;7.00;5.40;;;;;;;23.32;54.86;99885.97;4911670;29;20056;-64
2021/06/29 05:21:00;;;;;;;6.53;5.82;;;;;;;23.50;54.69;99896.00;4913398;29;20052;-64
2021/06/29 05:23:28;;;;;;;5.65;5.05;;;;;;;23.55;55.00;99888.72;4907079;29;20049;-64
2021/06/29 05:25:54;;;;;;;6.25;5.28;;;;;;;23.59;54.75;99884.50;4908937;29;20056;-64
2021/06/29 05:28:22;;;;;;;8.65;5.78;;;;;;;23.51;54.48;99887.53;4902046;29;20052;-65
2021/06/29 05:30:49;;;;;;;6.32;4.75;;;;;;;23.58;54.67;99882.00;4908350;29;20055;-64
2021/06/29 05:33:16;;;;;;;10.38;7.25;;;;;;;23.57;54.94;99892.09;4911059;29;20064;-65
2021/06/29 05:35:44;;;;;;;7.45;6.38;;;;;;;23.57;54.82;99892.09;4912104;29;20107;-63
2021/06/29 05:38:11;;;;;;;6.10;5.50;;;;;;;23.59;54.58;99892.72;4909407;29;20048;-64
2021/06/29 05:40:38;;;;;;;7.03;6.32;;;;;;;23.48;54.82;99896.25;4902750;29;20048;-65
2021/06/29 05:43:04;;;;;;;6.43;4.55;;;;;;;23.60;54.80;99888.91;4910490;29;20044;-67
2021/06/29 05:45:31;;;;;;;6.68;5.57;;;;;;;23.65;54.69;99892.81;4910381;29;20391;-65
2021/06/29 05:47:58;;;;;;;8.57;6.15;;;;;;;23.59;55.00;99895.44;4904938;29;20067;-65
2021/06/29 05:50:25;;;;;;;7.30;6.60;;;;;;;23.67;54.88;99896.16;4905464;29;20111;-63
2021/06/29 05:52:53;;;;;;;7.00;6.10;;;;;;;23.52;55.34;99902.91;4912183;29;20139;-64
2021/06/29 05:55:20;;;;;;;7.90;5.30;;;;;;;23.66;54.97;99900.78;4904757;29;20047;-64
2021/06/29 05:57:46;;;;;;;7.03;6.00;;;;;;;23.75;54.49;99896.63;4911147;29;20052;-65
2021/06/29 06:00:16;;;;;;;10.48;6.68;;;;;;;23.65;55.03;99903.78;4913296;29;20439;-64
2021/06/29 06:02:43;;;;;;;6.43;5.65;;;;;;;23.74;54.50;99903.19;4902393;29;20063;-63
2021/06/29 06:05:11;;;;;;;6.38;5.75;;;;;;;23.83;54.52;99904.50;4913107;29;20056;-64
2021/06/29 06:07:38;;;;;;;8.13;7.10;;;;;;;23.55;55.36;99902.41;4902343;29;20053;-64
2021/06/29 06:10:08;;;;;;;8.52;6.90;;;;;;;23.65;54.74;99901.03;4907798;29;20090;-63
2021/06/29 06:12:35;;;;;;;8.98;7.72;;;;;;;23.53;55.15;99906.47;4911143;29;20458;-65
2021/06/29 06:15:01;;;;;;;7.70;6.47;;;;;;;23.68;54.79;99904.16;4910185;29;20040;-62
2021/06/29 06:17:28;;;;;;;6.78;5.10;;;;;;;23.86;54.66;99901.28;4903572;29;20053;-64
2021/06/29 06:19:54;;;;;;;9.65;6.57;;;;;;;23.92;54.48;99892.13;4911246;29;20052;-64
2021/06/29 06:22:21;;;;;;;7.15;6.03;;;;;;;24.01;54.47;99895.31;4907642;29;20053;-64
2021/06/29 06:24:47;;;;;;;11.00;7.15;;;;;;;23.86;54.48;99892.22;4909752;29;20123;-63
2021/06/29 06:27:16;;;;;;;8.35;6.70;;;;;;;23.91;54.75;99898.63;4901472;29;20116;-63
2021/06/29 06:29:43;;;;;;;9.38;8.38;;;;;;;23.97;55.46;99902.34;4900096;29;20053;-65
2021/06/29 06:32:10;;;;;;;8.60;7.70;;;;;;;23.94;56.20;99908.31;4908894;29;20044;-63
2021/06/29 06:34:36;;;;;;;12.18;8.88;;;;;;;23.85;55.22;99901.53;4910438;29;20048;-65
2021/06/29 06:37:03;;;;;;;9.15;8.15;;;;;;;23.76;55.93;99898.31;4907077;29;20104;-64
2021/06/29 06:39:29;;;;;;;7.63;6.00;;;;;;;23.94;55.30;99902.00;4910566;29;20123;-63
2021/06/29 06:41:56;;;;;;;11.68;7.63;;;;;;;24.05;55.13;99903.91;4910283;29;20052;-64
2021/06/29 06:44:24;;;;;;;7.80;7.00;;;;;;;24.16;55.14;99909.38;4909853;29;20044;-63
2021/06/29 06:46:50;;;;;;;9.07;7.07;;;;;;;24.30;54.29;99906.34;4901291;29;20463;-65
2021/06/29 06:49:17;;;;;;;9.15;6.93;;;;;;;24.28;54.26;99901.13;4903934;29;20483;-65
2021/06/29 06:51:43;;;;;;;29.25;9.85;;;;;;;24.29;54.90;99905.53;4913116;29;20052;-66
2021/06/29 06:54:09;;;;;;;9.32;8.38;;;;;;;24.40;53.85;99906.59;4904599;29;20495;-65
2021/06/29 06:56:36;;;;;;;8.70;7.80;;;;;;;24.55;53.28;99915.13;4909940;29;20044;-66
2021/06/29 06:59:02;;;;;;;9.43;8.52;;;;;;;24.68;54.03;99914.00;4911660;29;20055;-63
2021/06/29 07:01:30;;;;;;;8.20;7.28;;;;;;;24.75;53.18;99918.28;4907804;29;20067;-64
2021/06/29 07:03:56;;;;;;;9.07;6.78;;;;;;;24.92;52.53;99909.25;4893985;29;20056;-65
2021/06/29 07:06:23;;;;;;;8.40;6.43;;;;;;;25.07;52.00;99912.31;4904222;29;20059;-63
2021/06/29 07:08:49;;;;;;;7.72;6.93;;;;;;;25.11;51.11;99919.00;4911751;29;20063;-64
2021/06/29 07:11:16;;;;;;;8.38;6.15;;;;;;;25.02;51.11;99914.97;4955954;23;20090;-65
2021/06/29 07:13:42;;;;;;;6.65;5.95;;;;;;;25.01;51.90;99905.06;4896077;29;20112;-63
2021/06/29 07:16:09;;;;;;;9.05;6.82;;;;;;;25.03;52.54;99908.41;4896020;29;20052;-64
2021/06/29 07:18:37;;;;;;;9.85;7.43;;;;;;;24.89;53.21;99904.28;4891913;29;21578;-64
2021/06/29 07:21:03;;;;;;;8.32;6.38;;;;;;;24.89;52.66;99909.75;4913050;23;20114;-64
2021/06/29 07:23:29;;;;;;;7.45;6.07;;;;;;;24.89;53.84;99909.75;4912202;29;20099;-65
2021/06/29 07:25:56;;;;;;;7.18;5.78;;;;;;;25.05;53.02;99903.50;4912206;29;20044;-65
2021/06/29 07:28:22;;;;;;;9.00;6.93;;;;;;;25.22;51.36;99900.75;4907448;29;20056;-64
2021/06/29 07:30:49;;;;;;;9.98;7.25;;;;;;;25.27;51.39;99896.19;4910906;29;20214;-66
2021/06/29 07:33:16;;;;;;;8.45;7.65;;;;;;;25.39;51.89;99898.88;4912470;29;20414;-64
2021/06/29 07:35:43;;;;;;;7.38;6.28;;;;;;;25.57;50.60;99904.13;4908795;29;20044;-64
2021/06/29 07:38:10;;;;;;;11.15;7.40;;;;;;;25.43;50.87;99907.44;4909478;29;20052;-66
2021/06/29 07:40:36;;;;;;;8.43;5.30;;;;;;;25.43;51.43;99902.75;4911630;29;20052;-64
2021/06/29 07:43:03;;;;;;;7.95;6.72;;;;;;;25.43;51.67;99905.50;4914024;29;20060;-63
2021/06/29 07:45:31;;;;;;;8.82;6.65;;;;;;;25.38;51.72;99901.88;4914140;29;20612;-64
2021/06/29 07:48:01;;;;;;;9.40;8.00;;;;;;;25.11;52.47;99905.25;4910683;29;20503;-64
2021/06/29 07:50:28;;;;;;;8.98;6.70;;;;;;;24.99;52.79;99904.47;4913195;29;20550;-64
2021/06/29 07:52:56;;;;;;;13.18;7.28;;;;;;;25.04;52.44;99904.56;4912570;29;20058;-65
2021/06/29 07:55:22;;;;;;;7.85;6.60;;;;;;;24.94;52.70;99907.09;4905705;29;20206;-66
2021/06/29 07:57:48;;;;;;;7.82;7.00;;;;;;;24.94;52.35;99902.44;4912748;29;20055;-63
2021/06/29 08:00:15;;;;;;;11.95;7.60;;;;;;;24.86;53.48;99910.22;4911830;29;20096;-63
2021/06/29 08:02:42;;;;;;;10.32;8.07;;;;;;;24.78;54.52;99908.72;4911500;29;20048;-66
2021/06/29 08:05:09;;;;;;;7.72;6.93;;;;;;;24.92;53.55;99910.09;4904574;29;20157;-65
2021/06/29 08:07:35;;;;;;;9.15;7.22;;;;;;;25.11;53.20;99909.91;4907043;29;20054;-65
2021/06/29 08:10:04;;;;;;;8.07;7.28;;;;;;;25.02;53.87;99914.97;4910366;29;20134;-65
2021/06/29 08:12:30;;;;;;;9.60;7.43;;;;;;;25.32;53.00;99911.91;4910375;29;20254;-65
2021/06/29 08:14:56;;;;;;;7.38;6.68;;;;;;;25.58;51.71;99915.94;4902411;29;20345;-65
2021/06/29 08:17:23;;;;;;;9.40;7.85;;;;;;;25.40;52.53;99906.03;4907565;29;20045;-64
2021/06/29 08:19:51;;;;;;;8.35;7.25;;;;;;;25.50;51.61;99911.69;4913780;29;20051;-65
2021/06/29 08:22:18;;;;;;;7.72;6.95;;;;;;;25.61;51.78;99909.94;4908278;29;20040;-65
2021/06/29 08:24:45;;;;;;;8.73;7.82;;;;;;;25.40;52.18;99911.50;4908645;29;20108;-65
2021/06/29 08:27:14;;;;;;;7.93;7.13;;;;;;;25.60;51.21;99911.84;4907655;29;20044;-64
2021/06/29 08:29:41;;;;;;;11.50;8.25;;;;;;;25.20;52.45;99912.00;4909335;29;20052;-66
2021/06/29 08:32:07;;;;;;;10.32;8.35;;;;;;;25.28;54.03;99922.56;4913597;29;20056;-64
2021/06/29 08:34:34;;;;;;;8.00;6.95;;;;;;;25.42;51.92;99914.00;4913590;29;20463;-65
2021/06/29 08:37:00;;;;;;;8.50;7.70;;;;;;;25.31;52.70;99924.81;4903439;29;20052;-65
2021/06/29 08:39:26;;;;;;;8.32;7.53;;;;;;;25.32;52.37;99914.66;4913950;29;20051;-65
2021/06/29 08:41:53;;;;;;;9.27;7.93;;;;;;;25.60;52.14;99911.03;4913111;29;20056;-64
2021/06/29 08:44:21;;;;;;;9.25;6.55;;;;;;;25.60;52.57;99914.59;4913244;29;20056;-65
2021/06/29 08:46:48;;;;;;;8.02;7.10;;;;;;;25.65;51.78;99909.16;4909561;29;20499;-64
2021/06/29 08:49:14;;;;;;;12.75;8.20;;;;;;;25.61;51.96;99902.53;4912710;29;20103;-65
2021/06/29 08:51:41;;;;;;;8.43;7.60;;;;;;;25.55;51.64;99902.69;4915379;29;20059;-66
2021/06/29 08:54:08;;;;;;;8.95;7.28;;;;;;;25.40;52.11;99899.69;4915179;29;20056;-65
2021/06/29 08:56:34;;;;;;;8.52;7.55;;;;;;;25.42;53.54;99892.88;4914851;29;20052;-63
2021/06/29 08:59:01;;;;;;;8.13;7.25;;;;;;;25.48;52.07;99907.53;4915102;29;20463;-66
2021/06/29 09:01:29;;;;;;;8.93;6.45;;;;;;;25.50;53.14;99902.63;4914469;29;20310;-64
2021/06/29 09:03:56;;;;;;;14.60;8.40;;;;;;;25.50;52.15;99906.19;4914811;29;20056;-64
2021/06/29 09:06:31;;;;;;;11.35;8.27;;;;;;;25.20;53.97;99913.91;4949719;23;20023;-79
2021/06/29 09:08:57;;;;;;;10.02;7.72;;;;;;;25.33;54.41;99911.66;4931436;29;20080;-79
2021/06/29 09:11:24;;;;;;;9.27;6.95;;;;;;;25.28;55.85;99913.50;4921275;29;20052;-79
2021/06/29 09:14:04;;;;;;;9.55;6.60;;;;;;;25.24;54.36;99906.84;4918396;29;20076;-77
2021/06/29 09:16:33;;;;;;;9.40;8.05;;;;;;;25.38;53.35;99902.69;4916908;29;20048;-77
2021/06/29 09:18:59;;;;;;;8.00;7.20;;;;;;;25.21;54.92;99915.56;4915130;29;20111;-75
2021/06/29 09:21:26;;;;;;;8.45;7.32;;;;;;;25.18;53.58;99903.16;4914703;29;20056;-78
2021/06/29 09:23:53;;;;;;;9.48;8.25;;;;;;;25.00;55.43;99911.63;4907675;29;20056;-76
2021/06/29 09:26:23;;;;;;;8.80;7.60;;;;;;;25.03;54.07;99911.16;4912511;29;20060;-79
2021/06/29 09:28:53;;;;;;;11.48;8.63;;;;;;;24.89;57.40;99918.00;4912802;29;20053;-79
2021/06/29 09:31:23;;;;;;;9.00;6.85;;;;;;;24.98;56.84;99913.75;4912022;29;20052;-77
2021/06/29 09:33:54;;;;;;;8.25;7.45;;;;;;;25.22;54.95;99914.47;4914011;29;20099;-78
2021/06/29 09:36:23;;;;;;;8.05;7.25;;;;;;;25.52;53.57;99908.69;4911794;29;20066;-80
2021/06/29 09:38:51;;;;;;;9.60;7.03;;;;;;;25.74;53.47;99912.38;4913943;29;20063;-77
2021/06/29 09:41:20;;;;;;;10.55;8.07;;;;;;;25.92;53.72;99905.75;4914262;29;20479;-79
2021/06/29 09:43:48;;;;;;;7.90;6.90;;;;;;;26.30;52.34;99902.16;4914171;29;20106;-78
2021/06/29 09:46:16;;;;;;;8.45;7.47;;;;;;;26.51;52.06;99906.00;4910753;29;20063;-79
2021/06/29 09:48:45;;;;;;;8.77;7.40;;;;;;;26.54;52.76;99904.69;4902809;29;20060;-77
2021/06/29 09:51:16;;;;;;;8.73;7.20;;;;;;;26.97;50.08;99899.09;4909672;29;20059;-83
2021/06/29 09:53:43;;;;;;;9.07;7.68;;;;;;;27.07;49.39;99899.22;4911776;29;20060;-77
2021/06/29 09:56:13;;;;;;;8.27;6.78;;;;;;;27.46;48.69;99896.25;4893687;29;20052;-78
2021/06/29 09:58:41;;;;;;;7.75;6.90;;;;;;;27.62;47.81;99892.53;4894703;29;20044;-77
2021/06/29 10:01:08;;;;;;;8.60;6.75;;;;;;;27.82;47.19;99893.78;4894829;29;20112;-78
2021/06/29 10:03:37;;;;;;;7.85;5.68;;;;;;;27.90;48.13;99896.06;4893174;29;20045;-76
2021/06/29 10:06:10;;;;;;;7.28;6.57;;;;;;;27.76;47.13;99894.88;4896981;29;20048;-80
2021/06/29 10:08:39;;;;;;;8.23;6.47;;;;;;;27.67;47.87;99898.09;4899024;29;20083;-82
2021/06/29 10:11:09;;;;;;;8.18;7.38;;;;;;;27.24;48.40;99899.13;4896179;29;20080;-77
2021/06/29 10:13:37;;;;;;;9.13;6.75;;;;;;;27.20;49.83;99888.88;4903760;29;20493;-78
2021/06/29 10:16:05;;;;;;;7.68;6.88;;;;;;;27.15;49.49;99899.88;4894929;29;20104;-76
2021/06/29 10:18:35;;;;;;;6.53;5.88;;;;;;;27.09;49.76;99897.03;4904780;29;20048;-75
2021/06/29 10:21:04;;;;;;;8.43;6.82;;;;;;;27.37;47.78;99884.09;4897223;29;20053;-78
2021/06/29 10:23:31;;;;;;;6.15;5.60;;;;;;;27.31;48.64;99891.47;4903236;29;20059;-78
2021/06/29 10:25:59;;;;;;;6.43;5.82;;;;;;;27.27;48.87;99890.34;4907269;29;20051;-78
2021/06/29 10:28:27;;;;;;;6.57;5.95;;;;;;;27.17;49.39;99895.75;4904426;29;20072;-77
2021/06/29 10:30:56;;;;;;;7.43;6.57;;;;;;;27.06;49.13;99894.00;4911645;29;20303;-80
2021/06/29 10:33:23;;;;;;;6.88;5.85;;;;;;;26.87;49.84;99887.16;4893911;29;20067;-79
2021/06/29 10:35:49;;;;;;;6.90;5.90;;;;;;;26.57;50.28;99887.66;4901863;29;20315;-77
2021/06/29 10:38:16;;;;;;;7.38;6.03;;;;;;;26.41;50.76;99889.41;4900458;29;20073;-78
2021/06/29 10:40:42;;;;;;;5.90;5.30;;;;;;;26.18;52.53;99882.22;4909012;29;20082;-78
2021/06/29 10:43:11;;;;;;;7.28;5.78;;;;;;;26.08;52.60;99888.41;4908131;29;20055;-78
2021/06/29 10:45:40;;;;;;;7.03;6.03;;;;;;;25.93;53.24;99875.28;4895596;29;20052;-77
2021/06/29 10:48:17;;;;;;;6.25;5.65;;;;;;;26.00;53.26;99871.50;4908751;29;20052;-77
2021/06/29 10:50:44;;;;;;;6.07;5.47;;;;;;;26.03;53.24;99870.97;4907217;29;20052;-77
2021/06/29 10:53:45;;;;;;;9.38;6.38;;;;;;;26.01;55.77;99868.50;4894313;29;20112;-80
2021/06/29 10:56:17;;;;;;;6.88;6.18;;;;;;;26.02;54.21;99861.06;4869268;29;20045;-78
2021/06/29 10:58:47;;;;;;;6.97;6.38;;;;;;;26.15;55.35;99863.44;4871227;29;20061;-77
2021/06/29 11:01:32;;;;;;;8.13;6.45;;;;;;;26.39;53.85;99850.28;4878209;29;20143;-77
2021/06/29 11:04:01;;;;;;;6.88;5.30;;;;;;;26.89;55.14;99849.19;4898924;29;20067;-81
2021/06/29 11:06:37;;;;;;;9.13;6.10;;;;;;;26.93;54.17;99856.66;4894084;29;20451;-77
2021/06/29 11:09:05;;;;;;;6.45;5.72;;;;;;;26.99;54.24;99849.25;4903412;29;20048;-78
2021/06/29 11:11:32;;;;;;;5.75;5.25;;;;;;;27.22;52.36;99845.38;4905620;29;20048;-77
2021/06/29 11:14:00;;;;;;;6.05;5.10;;;;;;;27.32;52.44;99839.94;4902837;29;20456;-77
2021/06/29 11:16:53;;;;;;;5.60;4.88;;;;;;;27.12;52.66;99848.88;4910980;29;20044;-77
2021/06/29 11:19:20;;;;;;;6.93;5.90;;;;;;;27.36;52.36;99844.69;4895420;29;20123;-76
2021/06/29 11:21:47;;;;;;;8.63;6.00;;;;;;;27.21;52.15;99838.19;4910749;29;20055;-77
2021/06/29 11:24:36;;;;;;;7.10;6.20;;;;;;;26.72;52.43;99841.84;4903423;29;20463;-78
2021/06/29 11:27:03;;;;;;;8.40;6.32;;;;;;;26.69;53.63;99838.81;4895748;29;20052;-77
2021/06/29 11:29:39;;;;;;;7.72;6.53;;;;;;;26.77;54.67;99832.84;4903238;29;20151;-79
2021/06/29 11:32:32;;;;;;;7.28;5.88;;;;;;;26.77;54.78;99825.41;4907841;29;20060;-78
2021/06/29 11:35:31;;;;;;;7.07;6.20;;;;;;;26.71;54.96;99833.88;4897476;29;20051;-78
2021/06/29 11:38:05;;;;;;;11.68;6.40;;;;;;;26.94;53.71;99836.28;4905236;29;20048;-77